Time;durP1;ratioP1;P1;durP2;ratioP2;P2;SDS_P1;SDS_P2;PMS_P1;PMS_P2;Temp;Humidity;BMP_temperature;BMP_pressure;BME280_temperature;BME280_humidity;BME280_pressure;Samples;Min_cycle;Max_cycle;Signal;HPM_P1;HPM_P2
2021/09/20 00:00:10;;;;;;;7.90;5.80;;;;;;;8.31;100.00;99866.75;6245918;28;20144;-71
2021/09/20 00:03:11;;;;;;;9.05;5.78;;;;;;;8.21;100.00;99864.63;6245739;28;20107;-70
2021/09/20 00:06:11;;;;;;;13.68;5.93;;;;;;;8.18;100.00;99862.22;6277699;28;20496;-70
2021/09/20 00:09:12;;;;;;;8.35;5.60;;;;;;;8.21;100.00;99867.22;6277537;28;20665;-71
2021/09/20 00:12:13;;;;;;;14.63;5.80;;;;;;;8.19;100.00;99866.47;6277522;28;20042;-70
2021/09/20 00:15:15;;;;;;;8.38;5.57;;;;;;;8.16;100.00;99865.81;6261013;28;20052;-73
2021/09/20 00:18:15;;;;;;;8.05;5.70;;;;;;;8.11;100.00;99867.81;6277573;28;20049;-73
2021/09/20 00:21:17;;;;;;;8.65;5.55;;;;;;;8.06;100.00;99873.25;6245528;28;20041;-73
2021/09/20 00:24:18;;;;;;;11.02;5.53;;;;;;;8.06;100.00;99868.06;6277563;28;20045;-73
2021/09/20 00:27:18;;;;;;;8.60;5.85;;;;;;;7.99;100.00;99866.69;6245406;28;20046;-73
2021/09/20 00:30:19;;;;;;;15.35;5.68;;;;;;;7.98;100.00;99865.03;6277459;28;20039;-73
2021/09/20 00:33:20;;;;;;;12.55;5.53;;;;;;;7.94;100.00;99859.16;6277443;28;20052;-74
2021/09/20 00:36:21;;;;;;;9.82;5.55;;;;;;;7.97;100.00;99858.16;6277437;28;20744;-74
2021/09/20 00:39:22;;;;;;;8.57;5.60;;;;;;;7.91;100.00;99858.47;6277430;28;20049;-73
2021/09/20 00:42:23;;;;;;;10.30;5.97;;;;;;;7.87;100.00;99861.25;6244152;28;20116;-73
2021/09/20 00:45:24;;;;;;;11.88;6.47;;;;;;;7.92;100.00;99865.38;6244157;28;20041;-74
2021/09/20 00:48:25;;;;;;;9.23;5.70;;;;;;;7.90;100.00;99868.03;6245436;28;20048;-73
2021/09/20 00:51:26;;;;;;;8.90;6.10;;;;;;;7.91;100.00;99866.25;6260624;28;20045;-74
2021/09/20 00:54:27;;;;;;;12.02;6.13;;;;;;;7.90;100.00;99860.25;6244783;28;20115;-74
2021/09/20 00:57:28;;;;;;;11.68;6.22;;;;;;;7.85;100.00;99855.28;6260472;28;20124;-74
2021/09/20 01:00:29;;;;;;;9.38;5.95;;;;;;;7.88;100.00;99849.91;6260399;28;20042;-74
2021/09/20 01:03:30;;;;;;;7.05;5.78;;;;;;;7.85;100.00;99841.47;6245036;28;20048;-74
2021/09/20 01:06:31;;;;;;;8.32;5.82;;;;;;;7.83;100.00;99840.72;6262495;28;20045;-74
2021/09/20 01:09:35;;;;;;;11.38;5.80;;;;;;;7.84;100.00;99847.56;6281895;28;20411;-73
2021/09/20 01:12:37;;;;;;;9.05;6.43;;;;;;;7.84;100.00;99847.56;6249512;28;20038;-73
2021/09/20 01:15:37;;;;;;;7.70;5.65;;;;;;;7.80;100.00;99848.66;6231770;28;20049;-74
2021/09/20 01:18:38;;;;;;;8.73;6.13;;;;;;;7.73;100.00;99858.53;6249485;28;20048;-73
2021/09/20 01:21:39;;;;;;;8.27;6.10;;;;;;;7.71;100.00;99859.53;6281296;28;20041;-74
2021/09/20 01:24:41;;;;;;;8.98;6.05;;;;;;;7.65;100.00;99852.91;6281343;28;20041;-74
2021/09/20 01:27:41;;;;;;;12.53;6.53;;;;;;;7.61;100.00;99854.81;6264671;28;20049;-74
2021/09/20 01:30:42;;;;;;;9.65;6.55;;;;;;;7.63;100.00;99852.13;6281636;28;20037;-74
2021/09/20 01:33:44;;;;;;;9.63;6.35;;;;;;;7.67;100.00;99844.09;6280905;28;20037;-74
2021/09/20 01:36:46;;;;;;;13.30;7.13;;;;;;;7.69;100.00;99843.19;6249010;28;20500;-74
2021/09/20 01:39:47;;;;;;;9.20;6.88;;;;;;;7.62;100.00;99848.72;6248937;28;20119;-74
2021/09/20 01:42:48;;;;;;;10.20;7.00;;;;;;;7.67;100.00;99841.50;6280932;28;20483;-73
2021/09/20 01:45:49;;;;;;;11.30;6.60;;;;;;;7.65;100.00;99840.75;6249065;28;20472;-74
2021/09/20 01:48:50;;;;;;;12.77;6.93;;;;;;;7.66;100.00;99841.63;6264147;28;20056;-73
2021/09/20 01:51:51;;;;;;;11.05;6.63;;;;;;;7.63;100.00;99845.19;6248840;28;20041;-73
2021/09/20 01:54:52;;;;;;;11.33;6.70;;;;;;;7.59;100.00;99846.25;6247259;28;20140;-74
2021/09/20 01:57:53;;;;;;;10.07;7.15;;;;;;;7.58;100.00;99839.41;6247339;28;20071;-73
2021/09/20 02:00:53;;;;;;;10.32;6.30;;;;;;;7.63;100.00;99845.19;6248441;28;20575;-74
2021/09/20 02:03:55;;;;;;;9.57;6.50;;;;;;;7.74;100.00;99842.03;6248565;28;20567;-74
2021/09/20 02:06:56;;;;;;;13.50;7.20;;;;;;;7.77;100.00;99835.84;6248454;28;20049;-74
2021/09/20 02:09:57;;;;;;;12.40;7.70;;;;;;;7.82;100.00;99839.03;6248445;28;20058;-74
2021/09/20 02:12:57;;;;;;;9.55;7.10;;;;;;;7.81;100.00;99840.78;6280276;28;20545;-74
2021/09/20 02:15:58;;;;;;;9.25;6.40;;;;;;;7.85;100.00;99844.91;6248151;28;20041;-74
2021/09/20 02:18:59;;;;;;;10.40;7.07;;;;;;;7.88;100.00;99838.69;6247139;28;20520;-74
2021/09/20 02:22:00;;;;;;;9.38;6.43;;;;;;;7.94;100.00;99843.56;6248032;28;20048;-74
2021/09/20 02:25:04;;;;;;;10.25;6.85;;;;;;;7.99;100.00;99832.91;6247990;28;20572;-74
2021/09/20 02:28:05;;;;;;;11.18;6.55;;;;;;;7.97;100.00;99827.84;6247879;28;20539;-74
2021/09/20 02:31:08;;;;;;;8.88;6.63;;;;;;;8.04;100.00;99829.16;6247983;28;20045;-73
2021/09/20 02:34:09;;;;;;;10.30;7.13;;;;;;;8.07;100.00;99829.00;6279116;28;20050;-73
2021/09/20 02:37:10;;;;;;;11.00;6.90;;;;;;;8.17;100.00;99826.72;6263057;28;20125;-74
2021/09/20 02:40:12;;;;;;;9.38;6.53;;;;;;;8.12;100.00;99815.75;6279358;28;20119;-74
2021/09/20 02:43:12;;;;;;;12.13;7.53;;;;;;;8.17;100.00;99816.34;6247642;28;20064;-74
2021/09/20 02:46:14;;;;;;;10.07;6.78;;;;;;;8.15;100.00;99822.53;6247821;28;20045;-74
2021/09/20 02:49:15;;;;;;;9.60;6.82;;;;;;;8.11;100.00;99821.88;6263065;28;20144;-74
2021/09/20 02:52:16;;;;;;;10.68;6.70;;;;;;;8.04;100.00;99823.13;6279343;28;20043;-74
2021/09/20 02:55:17;;;;;;;10.68;6.75;;;;;;;7.96;100.00;99828.72;6262432;28;20049;-74
2021/09/20 02:58:18;;;;;;;9.80;6.60;;;;;;;7.86;100.00;99825.81;6262644;28;20060;-74
2021/09/20 03:01:19;;;;;;;12.23;7.00;;;;;;;7.85;100.00;99825.88;6262314;28;20041;-74
2021/09/20 03:04:20;;;;;;;12.07;6.35;;;;;;;7.86;100.00;99828.41;6262439;28;20038;-74
2021/09/20 03:07:20;;;;;;;9.30;6.45;;;;;;;7.97;100.00;99827.84;6246881;28;20041;-74
2021/09/20 03:10:21;;;;;;;10.75;6.70;;;;;;;7.95;100.00;99821.88;6262382;28;20083;-74
2021/09/20 03:13:22;;;;;;;10.13;6.55;;;;;;;8.04;100.00;99823.13;6262180;28;20400;-72
2021/09/20 03:16:23;;;;;;;7.47;5.97;;;;;;;8.02;100.00;99830.19;6261924;28;20045;-73
2021/09/20 03:19:24;;;;;;;12.45;6.38;;;;;;;8.00;100.00;99832.84;6245588;28;20112;-73
2021/09/20 03:22:25;;;;;;;8.82;6.18;;;;;;;8.11;100.00;99826.22;6278610;28;20064;-73
2021/09/20 03:25:26;;;;;;;9.32;6.30;;;;;;;8.16;100.00;99827.66;6246511;28;20041;-73
2021/09/20 03:28:27;;;;;;;8.65;6.15;;;;;;;8.21;100.00;99823.03;6261515;28;20052;-72
2021/09/20 03:31:28;;;;;;;9.00;5.70;;;;;;;8.20;100.00;99828.34;6278294;28;20473;-76
2021/09/20 03:34:29;;;;;;;8.27;5.82;;;;;;;8.30;100.00;99819.13;6246308;28;20737;-76
2021/09/20 03:37:29;;;;;;;10.10;6.05;;;;;;;8.33;100.00;99823.31;6278275;28;20052;-76
2021/09/20 03:40:30;;;;;;;9.02;6.25;;;;;;;8.41;100.00;99831.56;6278192;28;20052;-77
2021/09/20 03:43:31;;;;;;;7.47;5.63;;;;;;;8.36;100.00;99843.91;6261587;28;20052;-77
2021/09/20 03:46:32;;;;;;;10.02;6.28;;;;;;;8.35;100.00;99852.66;6277996;28;20049;-77
2021/09/20 03:49:33;;;;;;;9.52;6.47;;;;;;;8.38;100.00;99849.88;6246022;28;20133;-75
2021/09/20 03:52:34;;;;;;;9.02;5.70;;;;;;;8.41;100.00;99847.97;6277900;28;20048;-75
2021/09/20 03:55:34;;;;;;;10.93;6.70;;;;;;;8.41;100.00;99855.78;6260941;28;20057;-76
2021/09/20 03:58:36;;;;;;;9.50;6.25;;;;;;;8.40;100.00;99858.41;6261622;28;20073;-75
2021/09/20 04:01:37;;;;;;;9.80;6.28;;;;;;;8.41;100.00;99863.56;6277575;28;20481;-76
2021/09/20 04:04:38;;;;;;;10.75;7.18;;;;;;;8.34;100.00;99859.63;6277699;28;20041;-76
2021/09/20 04:07:40;;;;;;;10.60;6.65;;;;;;;8.40;100.00;99858.41;6244427;28;20053;-77
2021/09/20 04:10:42;;;;;;;10.50;7.00;;;;;;;8.42;100.00;99854.88;6244275;28;20484;-77
2021/09/20 04:13:42;;;;;;;18.63;9.65;;;;;;;8.41;100.00;99849.75;6245612;28;20034;-77
2021/09/20 04:16:43;;;;;;;45.22;21.33;;;;;;;8.42;100.00;99838.41;6244183;28;20053;-73
2021/09/20 04:19:44;;;;;;;44.80;21.50;;;;;;;8.42;100.00;99834.06;6245574;28;20525;-73
2021/09/20 04:22:45;;;;;;;42.45;18.65;;;;;;;8.44;100.00;99821.81;6227764;28;20049;-73
2021/09/20 04:25:47;;;;;;;44.55;17.80;;;;;;;8.52;100.00;99842.19;6244219;28;20049;-73
2021/09/20 04:28:48;;;;;;;;;;;;;;;8.59;100.00;99835.72;6244715;28;20050;-74
2021/09/20 04:31:48;;;;;;;21.90;10.90;;;;;;;8.61;100.00;99838.25;6244538;28;20003;-74
2021/09/20 04:34:50;;;;;;;15.10;9.50;;;;;;;8.66;100.00;99825.81;6244106;28;20053;-73
2021/09/20 04:37:50;;;;;;;23.52;10.68;;;;;;;8.71;100.00;99831.59;6277322;28;20125;-73
2021/09/20 04:40:51;;;;;;;14.07;7.47;;;;;;;8.76;100.00;99839.13;6245122;28;20377;-73
2021/09/20 04:43:52;;;;;;;14.13;7.55;;;;;;;8.84;100.00;99842.97;6248957;28;20041;-73
2021/09/20 04:46:53;;;;;;;12.27;7.47;;;;;;;8.91;100.00;99842.63;6282444;28;20151;-73
2021/09/20 04:49:53;;;;;;;9.50;6.55;;;;;;;8.94;100.00;99847.66;6265479;28;20041;-73
2021/09/20 04:52:54;;;;;;;11.82;6.72;;;;;;;8.98;100.00;99844.78;6250070;28;20524;-76
2021/09/20 04:55:55;;;;;;;10.75;6.75;;;;;;;9.02;100.00;99832.44;6248579;28;20084;-73
2021/09/20 04:58:56;;;;;;;13.55;6.75;;;;;;;9.07;100.00;99827.78;6265277;28;20124;-73
2021/09/20 05:01:56;;;;;;;9.77;6.40;;;;;;;9.14;100.00;99828.25;6281784;28;20603;-73
2021/09/20 05:04:57;;;;;;;13.25;6.85;;;;;;;9.20;100.00;99833.09;6306719;28;20049;-74
2021/09/20 05:07:58;;;;;;;10.52;6.43;;;;;;;9.25;100.00;99826.72;6273287;28;20041;-74
2021/09/20 05:11:00;;;;;;;10.85;7.10;;;;;;;9.28;100.00;99826.50;6289558;28;20047;-73
2021/09/20 05:14:01;;;;;;;10.15;6.95;;;;;;;9.34;100.00;99830.53;6274294;28;20045;-73
2021/09/20 05:17:04;;;;;;;9.95;6.85;;;;;;;9.41;100.00;99824.03;6289344;28;20043;-74
2021/09/20 05:20:06;;;;;;;12.95;6.35;;;;;;;9.46;100.00;99835.00;6289514;28;20105;-73
2021/09/20 05:23:07;;;;;;;11.52;7.03;;;;;;;9.49;100.00;99852.22;6272838;28;20069;-74
2021/09/20 05:26:08;;;;;;;14.57;7.13;;;;;;;9.48;100.00;99851.38;6274105;28;20040;-75
2021/09/20 05:29:08;;;;;;;9.80;6.57;;;;;;;9.52;100.00;99851.22;6289424;28;20079;-74
2021/09/20 05:32:09;;;;;;;10.63;6.75;;;;;;;9.50;100.00;99855.69;6272769;28;20086;-74
2021/09/20 05:35:12;;;;;;;9.73;6.53;;;;;;;9.62;100.00;99863.59;6273780;28;20041;-74
2021/09/20 05:38:14;;;;;;;12.02;7.00;;;;;;;9.77;100.00;99867.03;6272539;28;20053;-74
2021/09/20 05:41:15;;;;;;;11.43;7.28;;;;;;;9.80;100.00;99881.63;6272559;28;20079;-73
2021/09/20 05:44:16;;;;;;;10.07;7.22;;;;;;;9.85;100.00;99879.59;6272461;28;20041;-74
2021/09/20 05:47:17;;;;;;;9.60;6.85;;;;;;;9.96;100.00;99881.53;6272318;28;20039;-73
2021/09/20 05:50:19;;;;;;;9.23;6.50;;;;;;;10.06;100.00;99882.66;6273435;28;20052;-74
2021/09/20 05:53:21;;;;;;;16.75;7.32;;;;;;;10.12;100.00;99890.09;6304418;28;20079;-73
2021/09/20 05:56:21;;;;;;;9.68;6.22;;;;;;;10.13;100.00;99897.00;6273075;28;20049;-73
2021/09/20 05:59:22;;;;;;;13.43;6.00;;;;;;;10.20;100.00;99900.91;6305607;28;20095;-73
2021/09/20 06:02:23;;;;;;;8.63;6.20;;;;;;;10.19;100.00;99899.22;6273080;28;20122;-73
2021/09/20 06:05:24;;;;;;;11.35;5.95;;;;;;;10.28;100.00;99898.66;6305374;28;20686;-74
2021/09/20 06:08:25;;;;;;;8.40;5.83;;;;;;;10.40;100.00;99901.47;6271932;28;20045;-73
2021/09/20 06:11:27;;;;;;;7.45;4.90;;;;;;;10.52;100.00;99897.22;6305125;28;20087;-73
2021/09/20 06:14:28;;;;;;;8.50;5.28;;;;;;;10.64;100.00;99899.06;6288124;28;20040;-73
2021/09/20 06:17:29;;;;;;;6.00;4.50;;;;;;;10.72;100.00;99907.25;6272766;28;20049;-73
2021/09/20 06:20:31;;;;;;;5.50;4.00;;;;;;;10.73;100.00;99911.53;6271575;28;20037;-74
2021/09/20 06:23:31;;;;;;;7.17;4.30;;;;;;;10.73;100.00;99903.72;6304724;28;20045;-73
2021/09/20 06:26:32;;;;;;;6.00;3.90;;;;;;;10.80;100.00;99912.81;6287922;28;20193;-74
2021/09/20 06:29:33;;;;;;;10.25;3.85;;;;;;;10.84;100.00;99918.69;6271318;28;20045;-73
2021/09/20 06:32:34;;;;;;;7.75;3.90;;;;;;;10.92;100.00;99902.53;6272428;28;20041;-74
2021/09/20 06:35:35;;;;;;;5.70;3.55;;;;;;;11.09;100.00;99905.69;6272070;28;20052;-73
2021/09/20 06:38:36;;;;;;;5.28;3.53;;;;;;;11.25;100.00;99905.53;6272161;28;20090;-73
2021/09/20 06:41:36;;;;;;;4.47;3.08;;;;;;;11.28;100.00;99900.13;6270967;28;20392;-73
2021/09/20 06:44:37;;;;;;;7.03;3.45;;;;;;;11.24;100.00;99901.25;6287513;28;20132;-73
2021/09/20 06:47:38;;;;;;;4.88;3.13;;;;;;;11.17;99.40;99902.59;6287397;28;20036;-73
2021/09/20 06:50:40;;;;;;;4.53;3.42;;;;;;;11.12;100.00;99902.06;6271891;28;20396;-74
2021/09/20 06:53:41;;;;;;;5.50;3.33;;;;;;;11.07;100.00;99910.19;6303827;28;20041;-74
2021/09/20 06:56:41;;;;;;;6.82;3.85;;;;;;;11.21;100.00;99905.84;6271571;28;20102;-74
2021/09/20 06:59:42;;;;;;;5.18;3.40;;;;;;;11.50;98.33;99902.09;6287450;28;20399;-73
2021/09/20 07:02:43;;;;;;;5.47;3.67;;;;;;;11.65;100.00;99913.31;6303780;28;20069;-73
2021/09/20 07:05:44;;;;;;;5.25;3.20;;;;;;;11.72;96.76;99910.31;6303451;28;20057;-74
2021/09/20 07:08:44;;;;;;;4.82;3.30;;;;;;;11.57;100.00;99918.22;6271431;28;20044;-73
2021/09/20 07:11:45;;;;;;;6.93;3.45;;;;;;;11.29;98.56;99896.56;6270184;28;20484;-74
2021/09/20 07:14:46;;;;;;;5.68;3.38;;;;;;;11.54;96.04;99931.50;6286530;28;20059;-76
2021/09/20 07:17:47;;;;;;;4.25;2.80;;;;;;;11.79;93.98;99928.06;6271168;28;20037;-76
2021/09/20 07:20:49;;;;;;;4.40;2.65;;;;;;;12.03;92.92;99932.59;6270162;28;20572;-76
2021/09/20 07:23:51;;;;;;;;;;;;;;;12.26;89.80;99939.66;6303294;28;20037;-76
2021/09/20 07:26:52;;;;;;;5.05;2.92;;;;;;;12.29;91.28;99936.84;6269863;28;19925;-76
2021/09/20 07:29:53;;;;;;;4.22;2.60;;;;;;;12.21;86.05;99940.91;6269879;28;20377;-76
2021/09/20 07:32:54;;;;;;;3.75;2.10;;;;;;;12.40;86.78;99940.50;6286246;28;20041;-76
2021/09/20 07:35:55;;;;;;;2.15;1.60;;;;;;;12.57;82.44;99953.22;6286257;28;20041;-76
2021/09/20 07:38:55;;;;;;;2.70;2.10;;;;;;;12.53;80.92;99940.47;6270753;28;20511;-76
2021/09/20 07:41:57;;;;;;;2.58;1.85;;;;;;;12.68;81.31;99940.22;6303025;28;20480;-76
2021/09/20 07:44:57;;;;;;;2.53;1.75;;;;;;;13.04;78.16;99948.97;6270709;28;20477;-76
2021/09/20 07:47:58;;;;;;;2.45;1.35;;;;;;;13.16;74.56;99949.84;6286086;28;20045;-76
2021/09/20 07:50:59;;;;;;;4.35;1.38;;;;;;;12.90;75.14;99943.88;6270611;28;20045;-76
2021/09/20 07:54:00;;;;;;;2.55;1.80;;;;;;;13.02;77.48;99957.88;6302500;28;20053;-76
2021/09/20 07:57:01;;;;;;;3.17;1.85;;;;;;;12.99;76.48;99952.84;6269077;28;20070;-76
2021/09/20 08:00:03;;;;;;;2.53;1.70;;;;;;;12.53;77.27;99958.78;6270440;28;20041;-76
2021/09/20 08:03:07;;;;;;;1.63;1.50;;;;;;;12.42;78.11;99962.97;6269242;28;20376;-76
2021/09/20 08:06:08;;;;;;;2.83;2.15;;;;;;;12.36;79.92;99965.19;6302035;28;20376;-73
2021/09/20 08:09:09;;;;;;;2.63;1.73;;;;;;;12.43;82.29;99963.81;6270246;28;20041;-73
2021/09/20 08:12:11;;;;;;;2.15;1.73;;;;;;;12.45;76.96;99962.75;6270321;28;20037;-73
2021/09/20 08:15:11;;;;;;;2.37;1.83;;;;;;;12.45;77.51;99961.94;6268038;28;20045;-73
2021/09/20 08:18:14;;;;;;;1.88;1.60;;;;;;;12.76;75.47;99965.81;6270122;28;20098;-73
2021/09/20 08:21:17;;;;;;;1.33;1.23;;;;;;;12.73;74.63;99963.44;6268936;28;20040;-74
2021/09/20 08:24:21;;;;;;;2.47;1.52;;;;;;;13.01;74.26;99957.06;6268641;28;20045;-73
2021/09/20 08:27:22;;;;;;;2.05;1.33;;;;;;;13.14;72.45;99964.00;6302277;28;20049;-74
2021/09/20 08:30:23;;;;;;;1.70;1.13;;;;;;;13.53;71.01;99962.03;6268817;28;20123;-74
2021/09/20 08:33:24;;;;;;;1.50;1.13;;;;;;;13.74;70.07;99968.28;6268721;28;20451;-74
2021/09/20 08:36:25;;;;;;;1.77;1.10;;;;;;;13.98;66.99;99967.38;6285381;28;20048;-74
2021/09/20 08:39:29;;;;;;;2.50;1.30;;;;;;;14.41;64.15;99959.66;6270220;28;20178;-74
2021/09/20 08:42:30;;;;;;;1.70;1.30;;;;;;;14.16;65.04;99957.25;6268746;28;20056;-74
2021/09/20 08:45:31;;;;;;;1.65;1.15;;;;;;;14.44;63.59;99966.44;6285128;28;20041;-74
2021/09/20 08:48:39;;;;;;;1.75;1.08;;;;;;;14.44;65.40;99974.31;6269777;28;20098;-74
2021/09/20 08:51:40;;;;;;;2.35;1.50;;;;;;;14.27;65.99;99978.25;6268667;28;20054;-73
2021/09/20 08:54:42;;;;;;;1.65;1.10;;;;;;;14.32;63.45;99987.44;6269369;28;20057;-74
2021/09/20 08:57:43;;;;;;;1.15;1.00;;;;;;;14.45;62.38;99982.03;6268441;28;20041;-74
2021/09/20 09:00:47;;;;;;;1.67;1.42;;;;;;;14.47;62.65;99974.88;6285166;28;20052;-73
2021/09/20 09:03:47;;;;;;;1.20;1.10;;;;;;;14.61;63.12;99976.47;6301785;28;20052;-73
2021/09/20 09:06:56;;;;;;;1.15;1.05;;;;;;;14.54;63.93;99979.66;6285062;28;20045;-73
2021/09/20 09:09:57;;;;;;;1.73;1.25;;;;;;;14.52;63.76;99977.19;6268330;28;20041;-74
2021/09/20 09:13:01;;;;;;;5.13;1.30;;;;;;;14.62;64.47;99977.28;6301739;28;20037;-74
2021/09/20 09:16:26;;;;;;;1.70;1.27;;;;;;;14.25;61.90;99977.53;6269361;28;20041;-74
2021/09/20 09:19:30;;;;;;;1.58;1.13;;;;;;;14.26;63.07;99977.41;6269566;28;20045;-73
2021/09/20 09:22:45;;;;;;;1.08;0.98;;;;;;;14.07;63.26;99966.69;6268132;28;20499;-73
2021/09/20 09:25:50;;;;;;;1.42;1.20;;;;;;;14.06;64.37;99965.00;6269712;28;20122;-74
2021/09/20 09:28:53;;;;;;;1.40;1.00;;;;;;;14.24;63.44;99966.19;6273327;28;20060;-73
2021/09/20 09:31:56;;;;;;;1.52;1.10;;;;;;;14.21;61.72;99971.69;6274014;28;20052;-73
2021/09/20 09:34:59;;;;;;;1.23;1.13;;;;;;;14.06;61.58;99976.34;6272286;28;20053;-73
2021/09/20 09:38:08;;;;;;;1.33;1.10;;;;;;;14.19;61.59;99978.84;6272410;28;20052;-74
2021/09/20 09:41:09;;;;;;;2.40;1.30;;;;;;;14.64;61.42;99978.00;6273676;28;20475;-74
2021/09/20 09:44:13;;;;;;;3.88;1.15;;;;;;;14.82;59.88;99983.59;6289000;28;20211;-73
2021/09/20 09:47:24;;;;;;;4.88;1.25;;;;;;;14.71;59.90;99987.91;6273682;28;20086;-74
2021/09/20 09:50:26;;;;;;;1.77;1.48;;;;;;;14.82;60.23;99986.22;6305576;28;20411;-74
2021/09/20 09:53:39;;;;;;;7.27;1.50;;;;;;;14.97;60.19;99998.16;6272255;28;20087;-74
2021/09/20 09:56:40;;;;;;;1.55;1.23;;;;;;;14.61;58.36;99999.28;6273194;28;20041;-73
2021/09/20 09:59:41;;;;;;;4.18;1.88;;;;;;;14.51;62.80;99994.69;6273143;28;20091;-74
2021/09/20 10:02:48;;;;;;;2.95;2.10;;;;;;;14.37;59.06;99997.59;6273164;28;20051;-74
2021/09/20 10:05:58;;;;;;;2.03;1.50;;;;;;;14.31;58.38;100004.16;6272996;28;20101;-73
2021/09/20 10:09:00;;;;;;;2.35;1.67;;;;;;;14.12;58.83;100009.13;6272901;28;20043;-73
2021/09/20 10:12:01;;;;;;;1.88;1.50;;;;;;;14.03;58.67;100009.84;6305036;28;20055;-73
2021/09/20 10:15:05;;;;;;;1.90;1.70;;;;;;;13.95;60.46;100017.44;6288210;28;20064;-73
2021/09/20 10:18:06;;;;;;;2.55;1.50;;;;;;;13.95;59.73;100013.03;6305154;28;20053;-73
2021/09/20 10:21:07;;;;;;;2.38;1.85;;;;;;;13.75;60.05;100009.28;6304887;28;20045;-73
2021/09/20 10:24:09;;;;;;;5.13;2.10;;;;;;;13.77;59.22;100006.56;6304862;28;20051;-73
2021/09/20 10:27:15;;;;;;;2.70;2.00;;;;;;;13.68;60.12;100005.47;6271628;28;20521;-73
2021/09/20 10:30:30;;;;;;;2.38;1.60;;;;;;;13.66;59.05;100004.75;6271568;28;20041;-73
2021/09/20 10:33:30;;;;;;;2.72;1.77;;;;;;;13.74;58.86;100009.41;6272524;28;20123;-73
2021/09/20 10:36:52;;;;;;;3.60;2.10;;;;;;;13.73;59.90;100005.94;6304449;28;20047;-73
2021/09/20 10:40:01;;;;;;;2.17;1.65;;;;;;;13.78;61.55;100005.63;6271378;28;20041;-73
2021/09/20 10:43:04;;;;;;;2.15;1.55;;;;;;;13.78;59.16;100009.06;6272242;28;20045;-74
2021/09/20 10:46:18;;;;;;;11.88;2.25;;;;;;;13.78;58.63;100008.25;6272130;28;20051;-73
2021/09/20 10:49:21;;;;;;;1.48;1.30;;;;;;;13.69;58.05;100002.72;6272186;28;20045;-73
2021/09/20 10:52:25;;;;;;;2.88;1.60;;;;;;;13.78;59.92;99998.56;6272010;28;20077;-73
2021/09/20 10:55:26;;;;;;;4.18;1.58;;;;;;;13.98;58.98;99990.97;6302863;28;20071;-73
2021/09/20 10:58:31;;;;;;;2.60;1.50;;;;;;;14.03;59.06;99994.09;6287248;28;20476;-73
2021/09/20 11:01:37;;;;;;;4.63;2.03;;;;;;;14.05;60.13;99994.81;6272084;28;20037;-73
2021/09/20 11:04:40;;;;;;;3.35;2.00;;;;;;;14.05;58.44;99987.78;6270440;28;20403;-73
2021/09/20 11:07:47;;;;;;;3.45;1.88;;;;;;;14.22;57.01;99977.78;6270458;28;20145;-73
2021/09/20 11:10:48;;;;;;;2.45;1.73;;;;;;;14.27;56.56;99973.84;6271516;28;20033;-72
2021/09/20 11:14:02;;;;;;;2.67;1.70;;;;;;;14.29;56.38;99984.22;6303809;28;20044;-71
2021/09/20 11:17:22;;;;;;;2.38;1.65;;;;;;;14.16;56.32;99978.25;6303340;28;20056;-76
2021/09/20 11:20:27;;;;;;;9.18;2.08;;;;;;;14.22;57.51;99978.59;6271314;28;20068;-75
2021/09/20 11:23:39;;;;;;;2.45;1.70;;;;;;;14.33;58.37;99977.78;6269985;28;20055;-76
2021/09/20 11:26:40;;;;;;;2.92;1.67;;;;;;;14.29;59.25;99971.94;6271153;28;20049;-76
2021/09/20 11:29:44;;;;;;;2.33;1.88;;;;;;;14.52;58.99;99978.00;6271060;28;20064;-76
2021/09/20 11:32:54;;;;;;;3.17;1.88;;;;;;;15.08;56.71;99966.56;6271184;28;20570;-76
2021/09/20 11:35:55;;;;;;;2.40;1.85;;;;;;;15.00;56.08;99970.78;6270823;28;20044;-76
2021/09/20 11:39:22;;;;;;;2.38;1.95;;;;;;;15.30;54.50;99976.19;6303023;28;20140;-76
2021/09/20 11:42:36;;;;;;;2.45;1.95;;;;;;;15.58;54.33;99971.25;6269786;28;20037;-76
2021/09/20 11:45:38;;;;;;;2.92;1.70;;;;;;;15.47;55.35;99972.16;6270854;28;20263;-76
2021/09/20 11:48:38;;;;;;;3.25;2.22;;;;;;;15.13;57.64;99978.50;6270622;28;20068;-75
2021/09/20 11:51:39;;;;;;;2.33;2.03;;;;;;;15.06;57.76;99980.81;6286017;28;20487;-76
2021/09/20 11:54:45;;;;;;;1.75;1.65;;;;;;;15.11;57.11;99981.25;6302686;28;20064;-76
2021/09/20 11:57:49;;;;;;;2.67;2.00;;;;;;;15.04;58.56;99975.66;6269324;28;20410;-76
2021/09/20 12:00:50;;;;;;;3.53;2.00;;;;;;;15.03;57.68;99974.00;6269304;28;20041;-76
2021/09/20 12:03:52;;;;;;;3.67;2.08;;;;;;;15.04;58.96;99972.22;6270518;28;20075;-76
2021/09/20 12:06:53;;;;;;;6.68;1.80;;;;;;;15.02;57.59;99968.88;6270364;28;20047;-76
2021/09/20 12:09:56;;;;;;;2.85;1.90;;;;;;;15.10;59.96;99969.91;6302528;28;20033;-76
2021/09/20 12:13:00;;;;;;;2.80;2.17;;;;;;;15.02;58.59;99972.31;6269197;28;20503;-76
2021/09/20 12:16:09;;;;;;;2.25;2.00;;;;;;;14.50;58.34;99969.41;6270109;28;20037;-76
2021/09/20 12:19:10;;;;;;;2.78;2.22;;;;;;;14.54;59.24;99962.13;6270284;28;20033;-76
2021/09/20 12:22:10;;;;;;;7.22;2.72;;;;;;;14.65;62.91;99970.00;6270042;28;20037;-76
2021/09/20 12:25:28;;;;;;;2.72;2.00;;;;;;;14.62;59.77;99978.16;6285608;28;20079;-76
2021/09/20 12:28:38;;;;;;;4.45;2.65;;;;;;;14.54;58.23;99970.00;6270252;28;20400;-76
2021/09/20 12:31:41;;;;;;;3.20;1.95;;;;;;;14.60;59.08;99969.56;6268915;28;20068;-76
2021/09/20 12:34:42;;;;;;;5.15;2.10;;;;;;;14.73;60.79;99968.59;6268693;28;20484;-76
2021/09/20 12:37:43;;;;;;;7.15;2.22;;;;;;;15.09;62.88;99976.13;6302094;28;20125;-76
2021/09/20 12:40:45;;;;;;;2.40;2.00;;;;;;;15.30;59.06;99976.19;6302090;28;20116;-75
2021/09/20 12:43:50;;;;;;;9.57;2.47;;;;;;;15.47;64.56;99969.53;6269888;28;20407;-76
2021/09/20 12:47:08;;;;;;;3.88;2.40;;;;;;;15.24;58.28;99978.47;6268516;28;20415;-76
2021/09/20 12:50:13;;;;;;;2.92;2.08;;;;;;;15.00;59.49;99976.03;6252062;28;20411;-76
2021/09/20 12:53:28;;;;;;;2.85;1.85;;;;;;;14.80;60.01;99975.84;6269754;28;20045;-75
2021/09/20 12:56:35;;;;;;;5.90;2.20;;;;;;;14.84;62.25;99984.31;6268307;28;20057;-75
2021/09/20 12:59:36;;;;;;;2.35;2.05;;;;;;;14.99;61.54;99990.97;6269775;28;20371;-76
2021/09/20 13:02:38;;;;;;;2.53;2.15;;;;;;;14.98;59.00;99989.28;6270804;28;20253;-76
2021/09/20 13:05:43;;;;;;;5.47;2.17;;;;;;;14.95;58.66;99992.19;6274359;28;20065;-75
2021/09/20 13:09:04;;;;;;;2.78;2.17;;;;;;;14.87;57.67;99989.34;6274660;28;20041;-75
2021/09/20 13:12:12;;;;;;;2.60;1.92;;;;;;;14.98;59.76;99994.53;6273367;28;20064;-75
2021/09/20 13:15:16;;;;;;;4.22;2.40;;;;;;;14.97;60.05;99995.53;6274241;28;20052;-76
2021/09/20 13:18:20;;;;;;;3.35;2.25;;;;;;;14.89;57.79;99997.94;6289248;28;20052;-76
2021/09/20 13:21:26;;;;;;;3.22;2.45;;;;;;;14.91;59.51;99990.75;6274187;28;20153;-76
2021/09/20 13:24:36;;;;;;;2.80;2.10;;;;;;;15.05;57.11;99989.63;6274011;28;20049;-75
2021/09/20 13:27:37;;;;;;;4.50;2.58;;;;;;;15.08;55.57;100006.00;6273938;28;20098;-77
2021/09/20 13:30:49;;;;;;;3.58;2.30;;;;;;;14.91;56.02;100007.34;6274047;28;20233;-75
2021/09/20 13:33:50;;;;;;;;;;;;;;;14.80;55.45;100009.16;6274340;28;20518;-75
2021/09/20 13:36:51;;;;;;;2.17;1.85;;;;;;;14.84;57.20;100006.16;6272420;28;19920;-75
2021/09/20 13:39:51;;;;;;;2.63;2.25;;;;;;;14.86;57.22;100006.03;6273723;28;20119;-75
2021/09/20 13:42:53;;;;;;;4.03;2.15;;;;;;;14.91;57.16;100006.53;6305928;28;20045;-75
2021/09/20 13:45:55;;;;;;;2.42;2.08;;;;;;;14.93;56.77;100015.13;6273732;28;20464;-76
2021/09/20 13:48:56;;;;;;;6.47;2.22;;;;;;;15.08;56.79;100019.13;6273579;28;20476;-76
2021/09/20 13:51:57;;;;;;;2.47;2.17;;;;;;;15.04;58.56;100027.38;6305636;28;20048;-76
2021/09/20 13:54:58;;;;;;;2.38;2.13;;;;;;;15.02;58.00;100024.88;6288583;28;20454;-76
2021/09/20 13:58:01;;;;;;;3.92;2.05;;;;;;;15.01;55.27;100023.22;6305411;28;20045;-74
2021/09/20 14:01:03;;;;;;;3.47;2.03;;;;;;;15.13;57.06;100028.44;6256007;28;20252;-73
2021/09/20 14:04:04;;;;;;;2.15;1.92;;;;;;;15.15;53.53;100035.22;6273136;28;20037;-73
2021/09/20 14:07:04;;;;;;;2.15;1.65;;;;;;;15.01;56.06;100040.75;6305360;28;20049;-73
2021/09/20 14:10:09;;;;;;;3.55;2.30;;;;;;;14.87;55.01;100042.69;6305307;28;20476;-73
2021/09/20 14:13:10;;;;;;;2.65;2.00;;;;;;;14.88;55.34;100039.09;6271664;28;20044;-73